Time;durP1;ratioP1;P1;durP2;ratioP2;P2;SDS_P1;SDS_P2;PMS_P1;PMS_P2;Temp;Humidity;BMP_temperature;BMP_pressure;BME280_temperature;BME280_humidity;BME280_pressure;Samples;Min_cycle;Max_cycle;Signal;HPM_P1;HPM_P2
2021/06/03 00:43:00;;;;;;;15.05;13.00;;;;;;;16.08;51.25;94859.78;5053365;27;96543;-52
2021/06/03 00:45:28;;;;;;;9.98;6.15;;;;;;;16.19;50.96;94858.00;5051671;27;97527;-51
2021/06/03 00:47:54;;;;;;;10.45;5.80;;;;;;;16.27;50.92;94865.13;5051609;27;99413;-50
2021/06/03 00:50:22;;;;;;;12.88;6.22;;;;;;;16.31;51.08;94873.38;5052259;27;97548;-51
2021/06/03 00:52:48;;;;;;;9.13;6.03;;;;;;;16.20;50.94;94870.47;5052575;27;96600;-47
2021/06/03 00:55:13;;;;;;;8.32;5.90;;;;;;;16.26;51.05;94866.28;5052392;27;96902;-48
2021/06/03 00:57:39;;;;;;;8.15;5.97;;;;;;;16.65;50.23;94864.53;5052211;27;99544;-51
2021/06/03 01:00:10;;;;;;;11.70;5.75;;;;;;;16.72;49.57;94859.19;5051985;27;99212;-48
2021/06/03 01:02:35;;;;;;;9.90;6.10;;;;;;;16.75;49.91;94869.34;5052195;27;96709;-50
2021/06/03 01:05:04;;;;;;;11.32;6.93;;;;;;;16.73;49.75;94866.22;5051915;27;97000;-52
2021/06/03 01:07:30;;;;;;;9.07;6.25;;;;;;;16.86;49.21;94862.06;5052038;27;99051;-48
2021/06/03 01:10:10;;;;;;;10.68;6.25;;;;;;;16.91;49.09;94860.97;5033814;27;100606;-51
2021/06/03 01:12:43;;;;;;;10.90;6.15;;;;;;;16.89;49.35;94868.75;5052485;27;96692;-49
2021/06/03 01:15:09;;;;;;;8.52;6.40;;;;;;;16.95;49.06;94855.56;5034473;27;97397;-47
2021/06/03 01:17:34;;;;;;;9.18;6.20;;;;;;;17.02;48.52;94861.13;5052118;27;97970;-46
2021/06/03 01:20:00;;;;;;;8.07;5.72;;;;;;;17.07;48.23;94858.09;5033500;27;99343;-46
2021/06/03 01:22:50;;;;;;;8.52;5.35;;;;;;;17.09;48.23;94849.50;5034101;27;96687;-47
2021/06/03 01:25:16;;;;;;;6.97;5.03;;;;;;;17.32;48.22;94850.19;5051830;27;96888;-47
2021/06/03 01:27:41;;;;;;;6.55;5.35;;;;;;;17.55;48.39;94853.94;5051008;27;99308;-47
2021/06/03 01:30:22;;;;;;;9.63;6.50;;;;;;;17.77;48.77;94849.47;5050472;27;101105;-47
2021/06/03 01:32:51;;;;;;;11.02;7.30;;;;;;;17.97;48.92;94847.31;5051481;27;96662;-48
2021/06/03 01:35:19;;;;;;;10.38;7.60;;;;;;;18.15;48.27;94846.72;5051888;27;96991;-46
2021/06/03 01:37:45;;;;;;;9.73;7.57;;;;;;;18.32;48.71;94846.06;5051225;27;99476;-50
2021/06/03 01:40:11;;;;;;;8.98;6.78;;;;;;;18.47;48.62;94846.19;5049972;27;99064;-50
2021/06/03 01:42:37;;;;;;;8.10;6.43;;;;;;;18.56;48.63;94843.88;5033257;27;96761;-52
2021/06/03 01:45:03;;;;;;;15.65;9.85;;;;;;;18.70;47.53;94840.44;5034116;27;96823;-49
2021/06/03 01:47:29;;;;;;;7.95;6.82;;;;;;;18.78;48.28;94850.28;5033001;27;100101;-46
2021/06/03 01:49:55;;;;;;;9.18;6.95;;;;;;;18.88;48.20;94842.47;5050210;27;98848;-58
2021/06/03 01:52:20;;;;;;;9.85;7.63;;;;;;;18.96;48.25;94844.91;5040474;27;97424;-47
2021/06/03 01:54:46;;;;;;;11.30;8.38;;;;;;;18.98;48.60;94844.53;5010181;28;96990;-49
2021/06/03 01:57:11;;;;;;;13.50;8.95;;;;;;;19.11;48.17;94845.00;5024934;28;99570;-47
2021/06/03 01:59:37;;;;;;;13.45;8.80;;;;;;;19.15;47.98;94851.22;5027330;28;99318;-46
2021/06/03 02:02:02;;;;;;;14.43;10.07;;;;;;;19.20;48.17;94842.66;5028622;28;96739;-47
2021/06/03 02:04:28;;;;;;;11.85;9.27;;;;;;;19.23;47.90;94847.34;5026628;28;96951;-46
2021/06/03 02:06:53;;;;;;;12.23;9.20;;;;;;;19.26;48.31;94848.56;5026561;27;99925;-46
2021/06/03 02:09:19;;;;;;;11.45;9.55;;;;;;;19.27;48.34;94847.38;5027582;28;99354;-48
2021/06/03 02:11:46;;;;;;;12.05;10.27;;;;;;;19.31;48.41;94852.88;5026325;28;96655;-46
2021/06/03 02:14:16;;;;;;;13.38;9.85;;;;;;;19.28;48.51;94848.16;5026387;27;97431;-46
2021/06/03 02:16:47;;;;;;;10.93;9.40;;;;;;;19.34;48.51;94841.94;5007902;28;99640;-47
2021/06/03 02:19:24;;;;;;;13.73;10.15;;;;;;;19.39;48.32;94847.03;5026099;28;99264;-45
2021/06/03 02:21:50;;;;;;;15.85;12.20;;;;;;;19.42;48.01;94853.69;5026408;28;96710;-46
2021/06/03 02:24:15;;;;;;;11.65;9.10;;;;;;;19.45;48.51;94852.13;5024494;28;97033;-48
2021/06/03 02:26:42;;;;;;;8.55;7.18;;;;;;;19.45;48.29;94852.91;5027207;28;99890;-48
2021/06/03 02:29:07;;;;;;;9.48;6.82;;;;;;;19.46;48.50;94859.97;5026140;28;99548;-49
2021/06/03 02:31:33;;;;;;;11.25;8.70;;;;;;;19.47;48.38;94858.78;5025689;28;96983;-47
2021/06/03 02:33:59;;;;;;;12.13;9.02;;;;;;;19.48;48.57;94857.63;5028033;28;97146;-48
2021/06/03 02:36:24;;;;;;;13.68;9.82;;;;;;;19.52;48.55;94858.44;5025840;28;99289;-47
2021/06/03 02:38:49;;;;;;;13.23;9.93;;;;;;;19.57;48.26;94861.97;5025095;28;99358;-48
2021/06/03 02:41:15;;;;;;;12.27;9.88;;;;;;;19.62;48.05;94861.59;5026475;28;97431;-47
2021/06/03 02:43:45;;;;;;;12.05;9.05;;;;;;;19.66;47.98;94859.63;5025725;27;97275;-48
2021/06/03 02:46:11;;;;;;;13.25;8.75;;;;;;;19.65;48.12;94861.56;5026365;27;98862;-48
2021/06/03 02:48:36;;;;;;;10.77;8.45;;;;;;;19.73;48.39;94873.34;5024504;28;99504;-52
2021/06/03 02:51:03;;;;;;;9.68;7.60;;;;;;;19.76;48.21;94866.31;5017233;28;96726;-49
2021/06/03 02:53:28;;;;;;;11.57;9.23;;;;;;;19.78;47.89;94869.44;5015985;28;96899;-46
2021/06/03 02:55:54;;;;;;;9.60;7.47;;;;;;;19.77;48.49;94879.59;5016616;28;100848;-51
2021/06/03 02:58:19;;;;;;;9.07;7.30;;;;;;;19.77;48.88;94878.84;5016384;28;99492;-49
2021/06/03 03:00:45;;;;;;;8.65;6.50;;;;;;;19.76;48.52;94866.31;5017036;28;96657;-50
2021/06/03 03:03:11;;;;;;;8.40;7.10;;;;;;;19.79;48.27;94868.28;5017261;28;97119;-51
2021/06/03 03:05:38;;;;;;;9.43;6.78;;;;;;;19.81;48.05;94874.91;5015489;28;98100;-52
2021/06/03 03:08:03;;;;;;;7.68;6.38;;;;;;;19.83;48.54;94872.56;5016064;28;99412;-50
2021/06/03 03:10:31;;;;;;;6.40;5.30;;;;;;;19.85;48.09;94883.16;5016880;28;96848;-47
2021/06/03 03:12:57;;;;;;;6.57;5.53;;;;;;;19.85;47.98;94878.44;5016941;28;96798;-46
2021/06/03 03:15:22;;;;;;;7.90;6.25;;;;;;;19.86;48.10;94898.44;5016277;28;99221;-50
2021/06/03 03:17:50;;;;;;;13.20;8.30;;;;;;;19.85;48.19;94885.91;5016081;28;99279;-49
2021/06/03 03:20:17;;;;;;;9.80;8.45;;;;;;;19.91;48.18;94889.88;5016457;28;96615;-46
2021/06/03 03:22:42;;;;;;;9.18;7.72;;;;;;;19.91;47.89;94889.88;5016985;28;96914;-49
2021/06/03 03:25:10;;;;;;;8.30;7.40;;;;;;;19.93;48.26;94889.47;5015970;28;99510;-48
2021/06/03 03:27:35;;;;;;;8.38;7.30;;;;;;;19.93;48.13;94892.19;5016323;28;97743;-47
2021/06/03 03:30:01;;;;;;;7.00;6.00;;;;;;;19.97;47.88;94890.25;5016892;28;97370;-50
2021/06/03 03:32:26;;;;;;;7.75;6.70;;;;;;;19.99;47.85;94890.66;5016721;28;97109;-47
2021/06/03 03:34:52;;;;;;;6.75;6.03;;;;;;;20.03;47.82;94896.94;5016038;28;99800;-51
2021/06/03 03:37:17;;;;;;;6.82;6.07;;;;;;;20.06;47.64;94893.41;5021271;28;99026;-47
2021/06/03 03:39:43;;;;;;;8.52;7.60;;;;;;;20.07;47.86;94899.66;5025826;27;96789;-48
2021/06/03 03:42:08;;;;;;;8.43;6.93;;;;;;;20.07;47.85;94897.72;5020850;28;97041;-50
2021/06/03 03:44:34;;;;;;;10.75;8.57;;;;;;;20.09;47.85;94898.09;5015618;28;99647;-47
2021/06/03 03:46:59;;;;;;;12.18;10.35;;;;;;;20.12;47.81;94896.53;5015677;28;99254;-49
2021/06/03 03:49:25;;;;;;;11.77;9.43;;;;;;;20.10;47.93;94898.88;5015549;28;96670;-50
2021/06/03 03:51:50;;;;;;;10.20;9.02;;;;;;;20.06;48.01;94901.63;5016204;28;96930;-49
2021/06/03 03:54:16;;;;;;;10.15;9.05;;;;;;;20.10;47.90;94901.63;5015318;28;99545;-46
2021/06/03 03:56:42;;;;;;;10.18;8.73;;;;;;;20.10;47.92;94896.94;5015126;28;98853;-49
2021/06/03 03:59:07;;;;;;;11.07;9.40;;;;;;;20.15;47.88;94903.97;5015963;28;96708;-50
2021/06/03 04:01:32;;;;;;;9.65;7.80;;;;;;;20.10;47.64;94896.94;5016329;28;96924;-46
2021/06/03 04:03:58;;;;;;;9.57;7.72;;;;;;;20.14;48.00;94903.22;5023674;28;98178;-46
2021/06/03 04:06:23;;;;;;;10.50;8.55;;;;;;;20.14;48.02;94908.69;5023575;28;99168;-47
2021/06/03 04:08:49;;;;;;;12.02;10.68;;;;;;;20.16;47.96;94904.78;5025144;28;96796;-48
2021/06/03 04:11:14;;;;;;;16.00;12.52;;;;;;;20.16;47.87;94910.25;5025870;28;96982;-48
2021/06/03 04:13:40;;;;;;;14.68;12.65;;;;;;;20.17;47.99;94903.59;5022762;28;99428;-51
2021/06/03 04:16:06;;;;;;;13.00;10.90;;;;;;;20.17;47.98;94912.59;5024069;27;99342;-49
2021/06/03 04:18:31;;;;;;;11.55;9.82;;;;;;;20.18;48.08;94913.41;5023870;27;96964;-49
2021/06/03 04:20:57;;;;;;;14.57;11.88;;;;;;;20.18;48.09;94911.44;5026289;28;96983;-47
2021/06/03 04:23:22;;;;;;;14.77;12.50;;;;;;;20.21;47.74;94912.63;5023218;28;98858;-47
2021/06/03 04:25:48;;;;;;;17.35;13.85;;;;;;;20.20;48.14;94911.06;5024098;27;99205;-48
2021/06/03 04:28:13;;;;;;;17.48;14.50;;;;;;;20.23;48.00;94916.53;5025733;28;96955;-50
2021/06/03 04:30:41;;;;;;;16.23;14.38;;;;;;;20.27;47.64;94920.06;5023432;27;96996;-47
2021/06/03 04:33:08;;;;;;;16.65;14.90;;;;;;;20.29;47.72;94920.47;5024220;28;99419;-49
2021/06/03 04:35:33;;;;;;;19.73;17.02;;;;;;;20.33;47.77;94925.16;5028150;28;99136;-48
2021/06/03 04:37:59;;;;;;;11.13;9.90;;;;;;;20.32;47.63;94918.88;5022573;28;96986;-47
2021/06/03 04:40:24;;;;;;;12.30;9.98;;;;;;;20.31;47.84;94920.09;5025209;28;96902;-49
2021/06/03 04:42:50;;;;;;;11.93;10.13;;;;;;;20.36;47.82;94918.91;5022718;28;99534;-51
2021/06/03 04:45:16;;;;;;;8.57;7.18;;;;;;;20.38;47.74;94922.81;5028612;27;99568;-55
2021/06/03 04:47:42;;;;;;;10.68;9.50;;;;;;;20.39;47.81;94918.88;5028474;27;96915;-54
2021/06/03 04:50:08;;;;;;;9.73;6.65;;;;;;;20.38;48.13;94922.81;5023194;28;97023;-48
2021/06/03 04:52:33;;;;;;;6.47;5.78;;;;;;;20.40;48.02;94920.44;5022295;28;99793;-48
2021/06/03 04:55:06;;;;;;;8.40;6.72;;;;;;;20.41;47.96;94930.25;5023867;27;99112;-47
2021/06/03 04:57:32;;;;;;;6.20;5.32;;;;;;;20.43;48.05;94925.16;5024373;28;96776;-52
2021/06/03 04:59:57;;;;;;;7.03;6.32;;;;;;;20.43;48.05;94924.38;5023898;28;97046;-49
2021/06/03 05:02:24;;;;;;;12.70;8.10;;;;;;;20.46;47.96;94933.78;5023579;28;100087;-49
2021/06/03 05:04:49;;;;;;;12.95;8.93;;;;;;;20.46;48.04;94928.28;5023576;28;99512;-51
2021/06/03 05:07:15;;;;;;;10.55;7.90;;;;;;;20.46;48.02;94933.78;5025661;27;97228;-44
2021/06/03 05:09:40;;;;;;;12.98;8.95;;;;;;;20.44;47.99;94932.22;5026209;27;97051;-53
2021/06/03 05:12:06;;;;;;;14.05;10.07;;;;;;;20.41;48.13;94927.50;5023798;28;99852;-53
2021/06/03 05:14:32;;;;;;;13.73;10.55;;;;;;;20.41;48.22;94927.50;5022477;27;99843;-53
2021/06/03 05:16:58;;;;;;;15.43;10.88;;;;;;;20.43;48.04;94925.16;5022930;28;96784;-51
2021/06/03 05:19:24;;;;;;;11.90;7.78;;;;;;;20.46;48.05;94931.03;5020340;27;97146;-51
2021/06/03 05:21:49;;;;;;;12.88;10.32;;;;;;;20.47;48.04;94935.34;5021702;28;99792;-50
2021/06/03 05:24:14;;;;;;;16.17;10.30;;;;;;;20.47;47.95;94929.88;5021912;27;99482;-48
2021/06/03 05:26:40;;;;;;;18.70;12.95;;;;;;;20.46;48.21;94929.09;5023990;27;98085;-52
2021/06/03 05:29:07;;;;;;;19.58;12.13;;;;;;;20.48;48.57;94934.19;5025703;28;96876;-49
2021/06/03 05:31:32;;;;;;;24.48;14.88;;;;;;;20.44;48.47;94937.69;5025567;28;99529;-51
2021/06/03 05:33:58;;;;;;;25.70;15.88;;;;;;;20.46;48.61;94939.28;5018658;28;98602;-49
2021/06/03 05:36:23;;;;;;;35.05;20.67;;;;;;;20.49;48.55;94939.28;5021446;28;97875;-53
2021/06/03 05:38:49;;;;;;;24.23;16.60;;;;;;;20.52;48.44;94946.75;5021166;27;96907;-50
2021/06/03 05:41:14;;;;;;;28.52;21.00;;;;;;;20.54;48.37;94954.56;5016497;28;98970;-53
2021/06/03 05:43:42;;;;;;;28.90;22.83;;;;;;;20.53;48.55;94951.06;5016743;28;99458;-50
2021/06/03 05:46:07;;;;;;;22.65;16.20;;;;;;;20.54;48.25;94958.09;5016828;28;96631;-45
2021/06/03 05:48:33;;;;;;;16.48;12.20;;;;;;;20.53;48.45;94951.06;5016758;28;96904;-55
2021/06/03 05:50:58;;;;;;;20.80;14.00;;;;;;;20.54;48.38;94957.31;5016279;28;99295;-51
2021/06/03 05:53:23;;;;;;;20.35;15.60;;;;;;;20.56;48.14;94954.97;5016768;28;99736;-53
2021/06/03 05:55:49;;;;;;;22.67;17.77;;;;;;;20.56;48.24;94960.44;5017114;28;97333;-47
2021/06/03 05:58:14;;;;;;;27.67;20.95;;;;;;;20.57;48.32;94959.28;5021337;28;96945;-50
2021/06/03 06:00:40;;;;;;;34.83;26.05;;;;;;;20.58;48.34;94955.34;5025569;27;100179;-53
2021/06/03 06:03:13;;;;;;;31.15;24.50;;;;;;;20.59;48.41;94965.16;5026859;28;98901;-55
2021/06/03 06:08:22;;;;;;;29.42;25.45;;;;;;;20.59;48.28;94960.47;5025340;28;96683;-56
2021/06/03 06:10:48;;;;;;;22.50;18.67;;;;;;;20.56;48.17;94960.44;5024506;27;99046;-51
2021/06/03 06:13:13;;;;;;;22.23;18.60;;;;;;;20.61;48.00;94957.31;5026163;27;99975;-57
2021/06/03 06:15:39;;;;;;;18.65;14.23;;;;;;;20.64;48.07;94964.75;5022025;28;97317;-50
2021/06/03 06:18:05;;;;;;;18.90;14.00;;;;;;;20.63;48.11;94971.44;5018188;28;96918;-49
2021/06/03 06:20:30;;;;;;;11.98;9.85;;;;;;;20.63;48.07;94965.94;5015917;28;99639;-55
2021/06/03 06:22:57;;;;;;;11.85;9.52;;;;;;;20.65;48.07;94957.31;5016266;28;99041;-48
2021/06/03 06:25:22;;;;;;;13.55;9.45;;;;;;;20.66;48.05;94962.41;5016829;28;96766;-52
2021/06/03 06:27:48;;;;;;;10.35;8.10;;;;;;;20.64;48.09;94966.72;5017200;28;96908;-54
2021/06/03 06:30:14;;;;;;;13.55;10.57;;;;;;;20.66;47.94;94959.66;5015939;28;99329;-54
2021/06/03 06:32:40;;;;;;;11.40;9.02;;;;;;;20.68;47.39;94956.53;5016010;28;99746;-52
2021/06/03 06:35:07;;;;;;;17.30;12.80;;;;;;;20.67;47.76;94961.25;5016114;28;96708;-55
2021/06/03 06:37:32;;;;;;;20.35;14.27;;;;;;;20.74;47.83;94961.25;5016376;28;96993;-51
2021/06/03 06:39:58;;;;;;;21.40;17.00;;;;;;;20.77;47.49;94964.38;5015725;28;99558;-50
2021/06/03 06:42:24;;;;;;;23.27;17.75;;;;;;;20.81;47.46;94971.44;5014876;28;99414;-57
2021/06/03 06:44:50;;;;;;;28.52;23.52;;;;;;;20.80;47.48;94974.59;5016241;28;96742;-49
2021/06/03 06:47:15;;;;;;;17.73;15.13;;;;;;;20.79;47.65;94973.03;5016113;28;97065;-51
2021/06/03 06:49:40;;;;;;;21.25;15.70;;;;;;;20.80;47.44;94963.63;5015811;28;99372;-49
2021/06/03 06:52:06;;;;;;;17.05;13.40;;;;;;;20.78;47.28;94966.75;5015627;28;98755;-57
2021/06/03 06:54:31;;;;;;;18.10;12.98;;;;;;;20.80;47.12;94975.38;5015993;28;96801;-54
2021/06/03 06:56:57;;;;;;;15.90;10.50;;;;;;;20.81;47.07;94967.94;5016154;28;96983;-47
2021/06/03 06:59:22;;;;;;;13.80;10.40;;;;;;;20.80;47.03;94966.38;5015374;28;99542;-55
2021/06/03 07:01:48;;;;;;;16.00;10.88;;;;;;;20.79;46.97;94960.06;5015250;28;99124;-54
2021/06/03 07:04:14;;;;;;;20.40;15.20;;;;;;;20.79;47.03;94957.34;5016076;28;96890;-49
2021/06/03 07:06:39;;;;;;;24.40;20.70;;;;;;;20.79;46.96;94962.06;5016142;28;96958;-50
2021/06/03 07:09:05;;;;;;;27.30;21.60;;;;;;;20.78;47.05;94960.47;5025622;28;99245;-47
2021/06/03 07:11:30;;;;;;;27.67;23.00;;;;;;;20.78;46.99;94955.75;5024394;28;99063;-57
2021/06/03 07:13:56;;;;;;;27.90;23.25;;;;;;;20.78;46.91;94957.75;5022522;27;96860;-53
2021/06/03 07:16:21;;;;;;;22.85;20.23;;;;;;;20.78;46.87;94966.75;5019038;28;96881;-52
2021/06/03 07:18:46;;;;;;;22.08;17.30;;;;;;;20.79;47.00;94959.31;5034682;27;99559;-56
2021/06/03 07:21:12;;;;;;;20.17;16.15;;;;;;;20.80;46.62;94966.38;5026122;27;99321;-51
2021/06/03 07:23:37;;;;;;;28.25;22.52;;;;;;;20.81;46.62;94967.94;5025976;28;96505;-53
2021/06/03 07:26:03;;;;;;;34.15;29.98;;;;;;;20.81;46.58;94959.69;5024503;28;96900;-53
2021/06/03 07:28:29;;;;;;;26.35;20.67;;;;;;;20.81;46.65;94962.44;5029286;27;99627;-54
2021/06/03 07:30:54;;;;;;;31.17;25.13;;;;;;;20.82;46.74;94966.75;5022189;27;99097;-58
2021/06/03 07:33:22;;;;;;;27.75;23.63;;;;;;;20.82;46.63;94972.25;5015542;28;96738;-54
2021/06/03 07:35:48;;;;;;;26.90;23.75;;;;;;;20.81;46.73;94970.69;5015395;28;96896;-57
2021/06/03 07:38:13;;;;;;;24.40;21.00;;;;;;;20.83;46.58;94968.31;5014836;28;99530;-50
2021/06/03 07:40:39;;;;;;;26.17;22.77;;;;;;;20.82;46.58;94973.03;5017028;28;99286;-56
2021/06/03 07:43:06;;;;;;;29.50;24.70;;;;;;;20.80;46.39;94974.59;5015445;28;96616;-55
2021/06/03 07:45:31;;;;;;;35.70;31.05;;;;;;;20.84;46.23;94975.38;5014897;28;96885;-57
2021/06/03 07:47:57;;;;;;;32.63;28.80;;;;;;;20.85;46.09;94971.47;5014600;28;99701;-52
2021/06/03 07:50:23;;;;;;;30.33;24.52;;;;;;;20.81;46.25;94963.22;5026600;28;99386;-58
2021/06/03 07:52:49;;;;;;;28.33;23.83;;;;;;;20.84;46.09;94970.66;5035366;27;96633;-52
2021/06/03 07:55:15;;;;;;;25.38;21.60;;;;;;;20.89;45.71;94972.25;5032249;28;96912;-55
2021/06/03 07:57:41;;;;;;;25.65;20.67;;;;;;;20.88;45.62;94976.16;5023172;27;99053;-56
2021/06/03 08:00:11;;;;;;;20.55;16.13;;;;;;;20.88;45.57;94970.69;5023094;28;99342;-53
2021/06/03 08:02:37;;;;;;;29.38;23.45;;;;;;;20.78;45.47;94955.00;5025244;28;96770;-55
2021/06/03 08:05:03;;;;;;;26.70;22.10;;;;;;;20.89;45.68;94966.75;5024020;28;96918;-51
2021/06/03 08:07:30;;;;;;;25.77;21.55;;;;;;;20.91;45.31;94969.09;5024146;27;100149;-55
2021/06/03 08:09:56;;;;;;;27.65;22.70;;;;;;;20.88;45.77;94954.22;5019925;28;97042;-54
2021/06/03 08:12:21;;;;;;;26.67;21.75;;;;;;;20.91;45.77;94969.88;5014802;28;96598;-57
2021/06/03 08:14:47;;;;;;;29.92;23.70;;;;;;;20.93;45.79;94966.75;5016718;28;96775;-50
2021/06/03 08:17:12;;;;;;;30.25;25.42;;;;;;;20.93;45.79;94961.25;5034433;28;99228;-52
2021/06/03 08:19:37;;;;;;;32.97;25.48;;;;;;;20.93;45.89;94956.53;5034062;27;103362;-51
2021/06/03 08:22:03;;;;;;;32.17;25.23;;;;;;;20.91;45.94;94975.34;5034757;27;96810;-50
2021/06/03 08:24:29;;;;;;;26.67;22.73;;;;;;;20.93;45.80;94973.00;5034701;27;97273;-48
2021/06/03 08:26:54;;;;;;;26.67;23.48;;;;;;;20.96;45.60;94963.22;5034107;28;99394;-54
2021/06/03 08:29:20;;;;;;;23.73;17.48;;;;;;;20.95;45.94;94940.44;5034398;27;98789;-55
2021/06/03 08:31:45;;;;;;;21.67;17.02;;;;;;;20.95;45.99;94956.91;5033932;28;96653;-54
2021/06/03 08:34:11;;;;;;;21.00;16.70;;;;;;;20.94;45.99;94958.09;5027415;27;96823;-55
2021/06/03 08:36:37;;;;;;;23.50;17.60;;;;;;;20.97;45.98;94968.28;5020575;28;99566;-51
2021/06/03 08:39:05;;;;;;;25.02;17.70;;;;;;;20.99;45.80;94959.69;5023750;27;99157;-48
2021/06/03 08:41:34;;;;;;;24.33;18.63;;;;;;;20.97;46.08;94962.81;5023280;28;97068;-51
2021/06/03 08:44:02;;;;;;;27.38;20.05;;;;;;;20.99;45.90;94976.91;5025695;27;97017;-52
2021/06/03 08:46:28;;;;;;;23.70;19.08;;;;;;;20.99;46.00;94971.44;5034162;27;99277;-49
2021/06/03 08:48:53;;;;;;;20.42;16.00;;;;;;;20.99;45.85;94971.44;5027826;27;99245;-52
2021/06/03 08:51:19;;;;;;;18.13;14.35;;;;;;;21.02;45.74;94976.13;5023406;28;96634;-51
2021/06/03 08:53:44;;;;;;;19.60;13.88;;;;;;;20.99;45.90;94978.91;5024646;28;96961;-50
2021/06/03 08:56:18;;;;;;;16.60;11.77;;;;;;;21.00;45.79;94983.97;5028669;28;99505;-50
2021/06/03 08:58:48;;;;;;;13.77;11.43;;;;;;;21.00;45.83;94978.50;5033659;27;99369;-50
2021/06/03 09:01:13;;;;;;;12.32;10.05;;;;;;;21.01;45.59;94969.06;5033922;27;96715;-48
2021/06/03 09:03:39;;;;;;;14.93;9.85;;;;;;;21.00;45.79;94966.75;5036051;27;96879;-49
2021/06/03 09:06:04;;;;;;;12.35;9.73;;;;;;;21.03;45.84;94972.22;5037673;27;99627;-51
2021/06/03 09:08:32;;;;;;;17.70;12.63;;;;;;;21.05;45.70;94973.78;5037479;28;98758;-46
2021/06/03 09:11:07;;;;;;;18.17;13.98;;;;;;;21.05;45.65;94971.03;5037770;28;97123;-49
2021/06/03 09:13:37;;;;;;;19.33;14.43;;;;;;;21.08;45.54;94981.22;5037511;27;96666;-51
2021/06/03 09:16:08;;;;;;;22.77;16.17;;;;;;;21.05;45.57;94984.75;5036588;27;99659;-48
2021/06/03 09:18:44;;;;;;;23.40;16.80;;;;;;;21.08;45.54;94978.50;5037490;28;99260;-53
2021/06/03 09:21:18;;;;;;;20.38;15.95;;;;;;;21.11;45.65;94977.69;5036985;27;96904;-53
2021/06/03 09:23:45;;;;;;;17.73;13.82;;;;;;;21.11;45.45;94977.69;5037449;27;96773;-52
2021/06/03 09:26:15;;;;;;;18.42;13.60;;;;;;;21.10;45.53;94978.88;5036442;27;99425;-48
2021/06/03 09:28:45;;;;;;;15.25;12.07;;;;;;;21.15;46.04;95005.94;5036864;27;99014;-46
2021/06/03 09:31:13;;;;;;;15.13;10.38;;;;;;;21.17;44.81;95003.59;5037493;27;96695;-57
2021/06/03 09:33:54;;;;;;;12.88;8.25;;;;;;;21.10;42.01;95001.66;5037215;27;96937;-53
2021/06/03 09:36:32;;;;;;;10.68;8.27;;;;;;;21.08;40.36;94989.47;5037254;27;99952;-56
2021/06/03 09:38:58;;;;;;;9.13;6.97;;;;;;;21.02;39.81;95003.59;5036718;27;98974;-55
2021/06/03 09:41:25;;;;;;;7.45;6.38;;;;;;;21.06;39.33;94997.31;5036498;27;97021;-55
2021/06/03 09:43:56;;;;;;;7.90;6.20;;;;;;;21.01;39.15;94991.03;5037592;27;97005;-51
2021/06/03 09:46:22;;;;;;;12.27;5.13;;;;;;;21.06;38.63;94994.56;5019358;28;99443;-56
2021/06/03 09:48:48;;;;;;;5.82;5.15;;;;;;;21.10;38.57;94992.59;5037011;28;98429;-55
2021/06/03 09:51:38;;;;;;;8.52;5.25;;;;;;;21.07;37.85;94987.91;5036990;27;97089;-55
2021/06/03 09:54:11;;;;;;;9.80;4.97;;;;;;;21.07;37.87;94993.41;5034320;27;96861;-54
2021/06/03 09:56:40;;;;;;;8.20;5.57;;;;;;;21.12;39.16;94991.06;5036365;27;99512;-52
2021/06/03 09:59:22;;;;;;;7.13;5.75;;;;;;;21.09;39.12;94977.31;5036829;27;97257;-50
2021/06/03 10:01:54;;;;;;;9.88;5.90;;;;;;;21.14;39.68;94976.91;5036158;28;97179;-50
2021/06/03 10:04:29;;;;;;;17.63;13.55;;;;;;;21.20;41.97;94996.53;5037167;27;96906;-50
2021/06/03 10:07:08;;;;;;;21.67;18.63;;;;;;;21.22;42.55;94988.66;5036645;27;99311;-54
2021/06/03 10:09:55;;;;;;;29.40;24.70;;;;;;;21.23;43.25;94985.53;5036855;28;99536;-53
2021/06/03 10:12:24;;;;;;;19.73;16.40;;;;;;;21.24;42.49;94998.09;5037054;27;96748;-53
2021/06/03 10:14:49;;;;;;;20.13;17.73;;;;;;;21.25;42.67;94988.66;5033051;27;97135;-55
2021/06/03 10:17:30;;;;;;;20.83;17.48;;;;;;;21.24;43.34;94989.84;5024382;27;99040;-53
2021/06/03 10:19:58;;;;;;;21.98;17.48;;;;;;;21.24;43.36;94992.59;5025172;28;99099;-57
2021/06/03 10:22:34;;;;;;;21.75;18.13;;;;;;;21.29;43.27;94988.66;5024277;27;96916;-56
2021/06/03 10:25:18;;;;;;;22.13;18.58;;;;;;;21.29;43.40;94994.94;5024330;27;96920;-54
2021/06/03 10:27:45;;;;;;;23.90;19.15;;;;;;;21.29;43.18;94989.44;5025998;28;99239;-56
2021/06/03 10:30:21;;;;;;;23.17;19.15;;;;;;;21.30;43.37;94985.53;5023055;28;99506;-60
2021/06/03 10:32:49;;;;;;;20.52;18.33;;;;;;;21.29;43.32;95000.44;5024130;28;96638;-50
2021/06/03 10:35:34;;;;;;;22.08;17.42;;;;;;;21.27;43.39;94997.31;5025362;27;96896;-50
2021/06/03 10:37:59;;;;;;;18.65;16.20;;;;;;;21.30;43.48;94995.72;5022938;28;99391;-54
2021/06/03 10:40:29;;;;;;;17.60;15.70;;;;;;;21.30;43.52;94988.28;5035126;28;99229;-52
2021/06/03 10:42:54;;;;;;;18.42;15.77;;;;;;;21.30;43.47;94996.50;5034287;27;96746;-50
2021/06/03 10:45:21;;;;;;;19.05;16.17;;;;;;;21.27;43.53;94991.81;5035465;28;97202;-53
2021/06/03 10:47:46;;;;;;;18.38;15.57;;;;;;;21.30;43.41;94988.28;5034903;27;99813;-53
2021/06/03 10:50:17;;;;;;;17.63;15.50;;;;;;;21.30;43.33;94991.00;5035654;28;97656;-54
2021/06/03 10:52:43;;;;;;;18.70;15.07;;;;;;;21.32;43.28;94993.34;5035730;27;96764;-53
2021/06/03 10:55:09;;;;;;;19.48;15.75;;;;;;;21.30;43.40;94984.72;5017848;28;96829;-49
2021/06/03 10:57:58;;;;;;;17.75;14.68;;;;;;;21.32;43.50;94985.91;5035709;27;99603;-51
2021/06/03 11:00:25;;;;;;;18.40;15.25;;;;;;;21.30;43.52;94982.78;5036415;27;97733;-51
2021/06/03 11:02:51;;;;;;;18.77;14.88;;;;;;;21.33;43.57;94983.94;5036022;28;96926;-54
2021/06/03 11:05:27;;;;;;;17.15;14.27;;;;;;;21.33;43.70;94990.22;5036283;27;96818;-48
2021/06/03 11:07:53;;;;;;;18.75;14.93;;;;;;;21.33;43.55;94995.72;5035696;27;99612;-52
2021/06/03 11:10:22;;;;;;;17.35;14.73;;;;;;;21.36;43.71;94987.88;5035784;27;99268;-51
2021/06/03 11:13:10;;;;;;;16.58;14.35;;;;;;;21.36;43.74;94977.66;5036073;27;96620;-58
2021/06/03 11:16:01;;;;;;;15.45;13.75;;;;;;;21.36;43.70;94976.88;5035999;28;96803;-54
2021/06/03 11:19:02;;;;;;;16.13;13.63;;;;;;;21.36;43.88;94974.13;5035594;28;99296;-52
2021/06/03 11:24:04;;;;;;;15.33;13.30;;;;;;;21.36;43.95;94976.88;5032334;27;96644;-49
2021/06/03 11:26:39;;;;;;;18.03;13.63;;;;;;;21.36;43.93;94976.88;5035300;27;96943;-51
2021/06/03 11:29:21;;;;;;;15.80;12.90;;;;;;;21.33;44.09;94976.50;5035397;28;98529;-53
2021/06/03 11:31:51;;;;;;;;;;;;;;;21.36;44.18;94968.63;5035724;27;99465;-48
2021/06/03 11:34:21;;;;;;;14.23;12.73;;;;;;;21.29;44.23;94975.72;5035635;28;96781;-52
2021/06/03 11:37:00;;;;;;;16.35;12.77;;;;;;;21.32;44.29;94972.16;5036008;27;96910;-53
2021/06/03 11:39:31;;;;;;;13.13;11.70;;;;;;;21.33;44.22;94973.75;5035531;27;99164;-53
2021/06/03 11:42:39;;;;;;;12.90;11.52;;;;;;;21.33;44.07;94965.50;5034798;27;99416;-58
2021/06/03 11:45:22;;;;;;;13.23;11.63;;;;;;;21.33;44.23;94961.94;5035990;28;96579;-56
2021/06/03 11:47:48;;;;;;;14.18;11.82;;;;;;;21.33;44.26;94973.75;5035790;27;96707;-54
2021/06/03 11:50:16;;;;;;;14.18;12.05;;;;;;;21.36;44.13;94966.66;5035190;27;99053;-58
2021/06/03 11:55:32;;;;;;;13.05;11.05;;;;;;;21.38;44.23;94963.53;5036013;27;96628;-57
2021/06/03 11:58:16;;;;;;;11.93;10.60;;;;;;;21.38;44.21;94958.03;5035526;27;97011;-53
2021/06/03 12:00:49;;;;;;;12.82;11.40;;;;;;;21.39;44.41;94965.09;5034829;28;98489;-57
2021/06/03 12:03:30;;;;;;;13.25;11.40;;;;;;;21.39;44.37;94959.59;5034830;28;99341;-54
2021/06/03 12:05:57;;;;;;;12.23;10.95;;;;;;;21.39;44.37;94954.88;5035413;27;96652;-57
2021/06/03 12:08:42;;;;;;;13.05;11.70;;;;;;;21.41;44.53;94954.50;5035173;27;96939;-59
2021/06/03 12:11:25;;;;;;;12.07;10.70;;;;;;;21.40;44.34;94950.19;5034871;28;99215;-58
2021/06/03 12:14:16;;;;;;;11.88;10.48;;;;;;;21.40;44.62;94947.44;5033534;28;101200;-53
2021/06/03 12:16:42;;;;;;;14.00;11.00;;;;;;;21.40;44.52;94947.44;5035380;27;96781;-54